Pagina principale
METAR-TAF:

METAR-TAF

Aeroporti :

Pápa, Ungheria

latitudine: 47-12N, longitudine: 017-30E, altezza: 145 m

Osservazione

Il bollettino è stato emesso 39 minuti fa, alle 09:15 UTC
Vento calmo
Temperature 18°C
Umidità 59%
Pressione 1022 hPa
Visibilità 10 km o più
nessuna nube inferiore a 1500 m e nessun cumulonembo

METAR: LHPA 170915Z 00000KT CAVOK 18/10 Q1022 NOSIG RMK BLU

Ora: 11:54 (09:54 UTC)

Previsione

Il bollettino è stato emesso 4 ore e 39 minuti fa, alle 05:15 UTC
Previsione valida dal 17 alle 06 UTC al 18 alle 06 UTC
Vento 3 kt da direzioni variabili
Visibilità 10 km o più
nessuna nube inferiore a 1500 m e nessun cumulonembo

TAF: LHPA 170515Z 1706/1806 VRB03KT CAVOK

Osservazioni e previsioni meteorologiche di più di 4000 aeroporti (messaggi METAR e TAF).

Le stazioni disponibili sono rappresentate dai dischi gialli e rossi sulla carta.

Puntare il mouse per vedere il nome della stazione.

Clicca sopra per visualizzare le osservazioni e previsioni meteorologiche.

Per cambiare la mappa : fare clic sui pulsanti verdi con una croce nera per ingrandire, il pulsante verde con un trattino per diminuire, o sulla freccia verde per le mappe adiacenti.


METAR-TAF: